sensor_id;sensor_type;location;lat;lon;timestamp;P1;durP1;ratioP1;P2;durP2;ratioP2
51082;SDS011;37131;42.694;23.350;2023-08-06T00:00:21;2.38;;;1.10;;
51082;SDS011;37131;42.694;23.350;2023-08-06T00:02:47;6.95;;;1.33;;
51082;SDS011;37131;42.694;23.350;2023-08-06T00:05:13;3.38;;;1.27;;
51082;SDS011;37131;42.694;23.350;2023-08-06T00:07:38;2.38;;;1.15;;
51082;SDS011;37131;42.694;23.350;2023-08-06T00:10:04;2.95;;;0.95;;
51082;SDS011;37131;42.694;23.350;2023-08-06T00:12:30;3.45;;;1.42;;
51082;SDS011;37131;42.694;23.350;2023-08-06T00:14:55;9.02;;;1.80;;
51082;SDS011;37131;42.694;23.350;2023-08-06T00:17:20;4.70;;;1.83;;
51082;SDS011;37131;42.694;23.350;2023-08-06T00:19:46;3.35;;;1.15;;
51082;SDS011;37131;42.694;23.350;2023-08-06T00:22:11;3.00;;;1.20;;
51082;SDS011;37131;42.694;23.350;2023-08-06T00:24:36;4.47;;;1.20;;
51082;SDS011;37131;42.694;23.350;2023-08-06T00:27:02;3.85;;;1.30;;
51082;SDS011;37131;42.694;23.350;2023-08-06T00:29:28;4.18;;;1.30;;
51082;SDS011;37131;42.694;23.350;2023-08-06T00:31:53;2.60;;;1.17;;
51082;SDS011;37131;42.694;23.350;2023-08-06T00:34:19;3.03;;;1.27;;
51082;SDS011;37131;42.694;23.350;2023-08-06T00:36:44;3.33;;;1.23;;
51082;SDS011;37131;42.694;23.350;2023-08-06T00:39:09;3.65;;;1.40;;
51082;SDS011;37131;42.694;23.350;2023-08-06T00:41:35;3.75;;;1.65;;
51082;SDS011;37131;42.694;23.350;2023-08-06T00:44:00;3.08;;;1.50;;
51082;SDS011;37131;42.694;23.350;2023-08-06T00:46:26;3.85;;;1.95;;
51082;SDS011;37131;42.694;23.350;2023-08-06T00:48:52;2.83;;;1.70;;
51082;SDS011;37131;42.694;23.350;2023-08-06T00:51:17;4.97;;;2.10;;
51082;SDS011;37131;42.694;23.350;2023-08-06T00:53:43;4.82;;;2.33;;
51082;SDS011;37131;42.694;23.350;2023-08-06T00:56:09;5.45;;;2.72;;
51082;SDS011;37131;42.694;23.350;2023-08-06T00:58:35;7.30;;;2.80;;
51082;SDS011;37131;42.694;23.350;2023-08-06T01:01:02;4.20;;;2.40;;
51082;SDS011;37131;42.694;23.350;2023-08-06T01:03:27;5.07;;;2.67;;
51082;SDS011;37131;42.694;23.350;2023-08-06T01:05:52;7.70;;;2.50;;
51082;SDS011;37131;42.694;23.350;2023-08-06T01:08:21;4.35;;;2.15;;
51082;SDS011;37131;42.694;23.350;2023-08-06T01:16:11;5.18;;;2.53;;
51082;SDS011;37131;42.694;23.350;2023-08-06T01:18:40;4.80;;;1.98;;
51082;SDS011;37131;42.694;23.350;2023-08-06T01:21:07;5.55;;;1.90;;
51082;SDS011;37131;42.694;23.350;2023-08-06T01:23:32;3.92;;;1.90;;
51082;SDS011;37131;42.694;23.350;2023-08-06T01:31:18;2.63;;;1.42;;
51082;SDS011;37131;42.694;23.350;2023-08-06T01:33:48;3.15;;;1.77;;
51082;SDS011;37131;42.694;23.350;2023-08-06T01:36:15;4.10;;;1.75;;
51082;SDS011;37131;42.694;23.350;2023-08-06T01:38:43;4.90;;;1.88;;
51082;SDS011;37131;42.694;23.350;2023-08-06T01:41:08;3.97;;;1.70;;
51082;SDS011;37131;42.694;23.350;2023-08-06T01:43:34;5.05;;;1.50;;
51082;SDS011;37131;42.694;23.350;2023-08-06T01:45:59;3.88;;;1.70;;
51082;SDS011;37131;42.694;23.350;2023-08-06T01:48:24;5.50;;;1.50;;
51082;SDS011;37131;42.694;23.350;2023-08-06T01:50:50;2.38;;;1.20;;
51082;SDS011;37131;42.694;23.350;2023-08-06T01:53:15;2.67;;;1.30;;
51082;SDS011;37131;42.694;23.350;2023-08-06T01:55:41;2.20;;;1.17;;
51082;SDS011;37131;42.694;23.350;2023-08-06T01:58:06;2.97;;;1.20;;
51082;SDS011;37131;42.694;23.350;2023-08-06T02:00:31;3.33;;;1.35;;
51082;SDS011;37131;42.694;23.350;2023-08-06T02:02:57;3.05;;;1.20;;
51082;SDS011;37131;42.694;23.350;2023-08-06T02:05:22;2.70;;;1.48;;
51082;SDS011;37131;42.694;23.350;2023-08-06T02:07:48;2.85;;;1.10;;
51082;SDS011;37131;42.694;23.350;2023-08-06T02:10:13;2.97;;;1.35;;
51082;SDS011;37131;42.694;23.350;2023-08-06T02:12:38;2.00;;;0.90;;
51082;SDS011;37131;42.694;23.350;2023-08-06T02:15:04;4.57;;;1.40;;
51082;SDS011;37131;42.694;23.350;2023-08-06T02:17:30;1.77;;;1.15;;
51082;SDS011;37131;42.694;23.350;2023-08-06T02:19:55;2.83;;;1.13;;
51082;SDS011;37131;42.694;23.350;2023-08-06T02:22:21;3.78;;;1.50;;
51082;SDS011;37131;42.694;23.350;2023-08-06T02:24:48;3.53;;;1.40;;
51082;SDS011;37131;42.694;23.350;2023-08-06T02:27:14;2.58;;;1.25;;
51082;SDS011;37131;42.694;23.350;2023-08-06T02:29:40;2.92;;;1.17;;
51082;SDS011;37131;42.694;23.350;2023-08-06T02:32:06;2.67;;;1.02;;
51082;SDS011;37131;42.694;23.350;2023-08-06T02:34:32;3.53;;;1.35;;
51082;SDS011;37131;42.694;23.350;2023-08-06T02:36:57;2.55;;;1.10;;
51082;SDS011;37131;42.694;23.350;2023-08-06T02:39:23;6.82;;;1.67;;
51082;SDS011;37131;42.694;23.350;2023-08-06T02:41:48;8.77;;;2.00;;
51082;SDS011;37131;42.694;23.350;2023-08-06T02:44:13;4.90;;;1.77;;
51082;SDS011;37131;42.694;23.350;2023-08-06T02:46:39;3.85;;;1.58;;
51082;SDS011;37131;42.694;23.350;2023-08-06T02:49:04;3.40;;;1.17;;
51082;SDS011;37131;42.694;23.350;2023-08-06T02:51:29;6.32;;;1.52;;
51082;SDS011;37131;42.694;23.350;2023-08-06T02:53:55;5.25;;;1.25;;
51082;SDS011;37131;42.694;23.350;2023-08-06T02:56:20;6.72;;;1.45;;
51082;SDS011;37131;42.694;23.350;2023-08-06T02:58:46;2.40;;;1.10;;
51082;SDS011;37131;42.694;23.350;2023-08-06T03:01:11;1.92;;;1.15;;
51082;SDS011;37131;42.694;23.350;2023-08-06T03:03:37;2.22;;;1.10;;
51082;SDS011;37131;42.694;23.350;2023-08-06T03:06:02;3.33;;;1.30;;
51082;SDS011;37131;42.694;23.350;2023-08-06T03:08:28;3.28;;;1.38;;
51082;SDS011;37131;42.694;23.350;2023-08-06T03:10:53;2.45;;;1.20;;
51082;SDS011;37131;42.694;23.350;2023-08-06T03:13:19;3.65;;;1.30;;
51082;SDS011;37131;42.694;23.350;2023-08-06T03:15:57;3.95;;;1.50;;
51082;SDS011;37131;42.694;23.350;2023-08-06T03:18:24;3.13;;;1.45;;
51082;SDS011;37131;42.694;23.350;2023-08-06T03:20:51;4.50;;;1.50;;
51082;SDS011;37131;42.694;23.350;2023-08-06T03:23:17;3.80;;;1.50;;
51082;SDS011;37131;42.694;23.350;2023-08-06T03:25:42;7.10;;;1.50;;
51082;SDS011;37131;42.694;23.350;2023-08-06T03:28:08;3.40;;;1.20;;
51082;SDS011;37131;42.694;23.350;2023-08-06T03:30:33;4.13;;;1.70;;
51082;SDS011;37131;42.694;23.350;2023-08-06T03:32:59;4.32;;;1.90;;
51082;SDS011;37131;42.694;23.350;2023-08-06T03:35:24;3.83;;;1.83;;
51082;SDS011;37131;42.694;23.350;2023-08-06T03:37:49;3.28;;;1.55;;
51082;SDS011;37131;42.694;23.350;2023-08-06T03:40:15;3.85;;;1.50;;
51082;SDS011;37131;42.694;23.350;2023-08-06T03:42:40;2.33;;;1.20;;
51082;SDS011;37131;42.694;23.350;2023-08-06T03:45:06;2.72;;;1.40;;
51082;SDS011;37131;42.694;23.350;2023-08-06T03:47:32;4.10;;;1.65;;
51082;SDS011;37131;42.694;23.350;2023-08-06T03:49:57;2.83;;;1.48;;
51082;SDS011;37131;42.694;23.350;2023-08-06T03:52:23;3.13;;;1.25;;
51082;SDS011;37131;42.694;23.350;2023-08-06T03:54:48;2.53;;;1.30;;
51082;SDS011;37131;42.694;23.350;2023-08-06T03:57:14;2.75;;;1.60;;
51082;SDS011;37131;42.694;23.350;2023-08-06T03:59:39;3.78;;;1.20;;
51082;SDS011;37131;42.694;23.350;2023-08-06T04:02:04;2.22;;;1.40;;
51082;SDS011;37131;42.694;23.350;2023-08-06T04:04:30;4.03;;;1.50;;
51082;SDS011;37131;42.694;23.350;2023-08-06T04:06:55;2.38;;;1.40;;
51082;SDS011;37131;42.694;23.350;2023-08-06T04:09:21;3.03;;;1.63;;
51082;SDS011;37131;42.694;23.350;2023-08-06T04:11:46;2.83;;;1.30;;
51082;SDS011;37131;42.694;23.350;2023-08-06T04:14:11;2.70;;;1.33;;
51082;SDS011;37131;42.694;23.350;2023-08-06T04:16:37;3.67;;;1.60;;
51082;SDS011;37131;42.694;23.350;2023-08-06T04:19:02;5.25;;;1.60;;
51082;SDS011;37131;42.694;23.350;2023-08-06T04:21:27;2.60;;;1.30;;
51082;SDS011;37131;42.694;23.350;2023-08-06T04:23:53;2.80;;;1.38;;
51082;SDS011;37131;42.694;23.350;2023-08-06T04:26:18;3.28;;;1.35;;
51082;SDS011;37131;42.694;23.350;2023-08-06T04:28:44;3.10;;;1.40;;
51082;SDS011;37131;42.694;23.350;2023-08-06T04:31:09;3.70;;;1.60;;
51082;SDS011;37131;42.694;23.350;2023-08-06T04:33:35;2.75;;;1.23;;
51082;SDS011;37131;42.694;23.350;2023-08-06T04:36:00;2.22;;;1.23;;
51082;SDS011;37131;42.694;23.350;2023-08-06T04:38:26;3.80;;;1.40;;
51082;SDS011;37131;42.694;23.350;2023-08-06T04:40:52;2.08;;;1.10;;
51082;SDS011;37131;42.694;23.350;2023-08-06T04:43:17;2.25;;;1.35;;
51082;SDS011;37131;42.694;23.350;2023-08-06T04:45:49;2.13;;;1.02;;
51082;SDS011;37131;42.694;23.350;2023-08-06T04:48:16;3.15;;;1.42;;
51082;SDS011;37131;42.694;23.350;2023-08-06T04:50:45;2.25;;;1.20;;
51082;SDS011;37131;42.694;23.350;2023-08-06T04:53:12;1.88;;;0.98;;
51082;SDS011;37131;42.694;23.350;2023-08-06T04:55:37;1.67;;;1.08;;
51082;SDS011;37131;42.694;23.350;2023-08-06T04:58:02;3.75;;;1.30;;
51082;SDS011;37131;42.694;23.350;2023-08-06T05:00:28;4.20;;;1.30;;
51082;SDS011;37131;42.694;23.350;2023-08-06T05:02:53;3.40;;;1.33;;
51082;SDS011;37131;42.694;23.350;2023-08-06T05:05:19;4.57;;;1.80;;
51082;SDS011;37131;42.694;23.350;2023-08-06T05:07:45;2.65;;;1.67;;
51082;SDS011;37131;42.694;23.350;2023-08-06T05:10:14;2.88;;;1.50;;
51082;SDS011;37131;42.694;23.350;2023-08-06T05:12:40;2.33;;;1.20;;
51082;SDS011;37131;42.694;23.350;2023-08-06T05:15:05;2.03;;;0.95;;
51082;SDS011;37131;42.694;23.350;2023-08-06T05:17:31;2.33;;;1.20;;
51082;SDS011;37131;42.694;23.350;2023-08-06T05:19:57;2.72;;;1.05;;
51082;SDS011;37131;42.694;23.350;2023-08-06T05:22:22;2.22;;;1.33;;
51082;SDS011;37131;42.694;23.350;2023-08-06T05:24:47;2.13;;;1.10;;
51082;SDS011;37131;42.694;23.350;2023-08-06T05:27:13;2.20;;;1.10;;
51082;SDS011;37131;42.694;23.350;2023-08-06T05:29:39;2.30;;;1.33;;
51082;SDS011;37131;42.694;23.350;2023-08-06T05:32:04;2.50;;;1.40;;
51082;SDS011;37131;42.694;23.350;2023-08-06T05:34:30;1.98;;;1.10;;
51082;SDS011;37131;42.694;23.350;2023-08-06T05:36:55;2.28;;;1.20;;
51082;SDS011;37131;42.694;23.350;2023-08-06T05:39:20;2.40;;;1.30;;
51082;SDS011;37131;42.694;23.350;2023-08-06T05:41:46;3.95;;;1.67;;
51082;SDS011;37131;42.694;23.350;2023-08-06T05:44:11;3.42;;;1.58;;
51082;SDS011;37131;42.694;23.350;2023-08-06T05:46:36;2.95;;;1.35;;
51082;SDS011;37131;42.694;23.350;2023-08-06T05:49:02;3.20;;;1.52;;
51082;SDS011;37131;42.694;23.350;2023-08-06T05:51:27;2.03;;;1.27;;
51082;SDS011;37131;42.694;23.350;2023-08-06T05:53:53;2.10;;;1.40;;
51082;SDS011;37131;42.694;23.350;2023-08-06T05:56:18;3.42;;;1.40;;
51082;SDS011;37131;42.694;23.350;2023-08-06T05:58:44;2.88;;;1.45;;
51082;SDS011;37131;42.694;23.350;2023-08-06T06:01:11;2.30;;;1.40;;
51082;SDS011;37131;42.694;23.350;2023-08-06T06:03:37;2.55;;;1.40;;
51082;SDS011;37131;42.694;23.350;2023-08-06T06:06:02;2.13;;;1.33;;
51082;SDS011;37131;42.694;23.350;2023-08-06T06:08:28;2.90;;;1.48;;
51082;SDS011;37131;42.694;23.350;2023-08-06T06:10:53;1.50;;;1.05;;
51082;SDS011;37131;42.694;23.350;2023-08-06T06:13:19;2.55;;;1.10;;
51082;SDS011;37131;42.694;23.350;2023-08-06T06:15:46;1.52;;;0.85;;
51082;SDS011;37131;42.694;23.350;2023-08-06T06:18:12;1.20;;;0.68;;
51082;SDS011;37131;42.694;23.350;2023-08-06T06:20:37;1.25;;;0.70;;
51082;SDS011;37131;42.694;23.350;2023-08-06T06:23:03;1.92;;;0.80;;
51082;SDS011;37131;42.694;23.350;2023-08-06T06:25:28;1.40;;;0.80;;
51082;SDS011;37131;42.694;23.350;2023-08-06T06:27:53;1.50;;;0.70;;
51082;SDS011;37131;42.694;23.350;2023-08-06T06:30:19;1.55;;;0.60;;
51082;SDS011;37131;42.694;23.350;2023-08-06T06:32:44;1.35;;;0.77;;
51082;SDS011;37131;42.694;23.350;2023-08-06T06:35:09;1.23;;;0.68;;
51082;SDS011;37131;42.694;23.350;2023-08-06T06:37:35;2.10;;;0.77;;
51082;SDS011;37131;42.694;23.350;2023-08-06T06:40:00;2.53;;;0.70;;
51082;SDS011;37131;42.694;23.350;2023-08-06T06:42:26;2.08;;;0.90;;
51082;SDS011;37131;42.694;23.350;2023-08-06T06:44:51;1.77;;;0.63;;
51082;SDS011;37131;42.694;23.350;2023-08-06T06:47:16;1.08;;;0.73;;
51082;SDS011;37131;42.694;23.350;2023-08-06T06:49:42;2.13;;;0.70;;
51082;SDS011;37131;42.694;23.350;2023-08-06T06:52:07;0.90;;;0.43;;
51082;SDS011;37131;42.694;23.350;2023-08-06T06:54:33;1.65;;;0.60;;
51082;SDS011;37131;42.694;23.350;2023-08-06T06:56:58;1.30;;;0.80;;
51082;SDS011;37131;42.694;23.350;2023-08-06T06:59:23;1.27;;;0.57;;
51082;SDS011;37131;42.694;23.350;2023-08-06T07:01:49;0.80;;;0.57;;
51082;SDS011;37131;42.694;23.350;2023-08-06T07:04:14;1.10;;;0.70;;
51082;SDS011;37131;42.694;23.350;2023-08-06T07:06:40;1.25;;;0.73;;
51082;SDS011;37131;42.694;23.350;2023-08-06T07:09:05;1.10;;;0.60;;
51082;SDS011;37131;42.694;23.350;2023-08-06T07:11:30;1.63;;;0.70;;
51082;SDS011;37131;42.694;23.350;2023-08-06T07:13:56;1.85;;;0.70;;
51082;SDS011;37131;42.694;23.350;2023-08-06T07:16:23;2.00;;;0.80;;
51082;SDS011;37131;42.694;23.350;2023-08-06T07:18:50;2.17;;;1.00;;
51082;SDS011;37131;42.694;23.350;2023-08-06T07:21:16;2.85;;;0.82;;
51082;SDS011;37131;42.694;23.350;2023-08-06T07:23:41;1.70;;;0.60;;
51082;SDS011;37131;42.694;23.350;2023-08-06T07:26:07;1.55;;;0.88;;
51082;SDS011;37131;42.694;23.350;2023-08-06T07:28:32;2.95;;;0.85;;
51082;SDS011;37131;42.694;23.350;2023-08-06T07:30:58;2.67;;;0.80;;
51082;SDS011;37131;42.694;23.350;2023-08-06T07:33:23;1.50;;;0.80;;
51082;SDS011;37131;42.694;23.350;2023-08-06T07:35:48;2.10;;;0.82;;
51082;SDS011;37131;42.694;23.350;2023-08-06T07:38:14;1.98;;;0.80;;
51082;SDS011;37131;42.694;23.350;2023-08-06T07:40:39;1.40;;;0.90;;
51082;SDS011;37131;42.694;23.350;2023-08-06T07:43:05;3.00;;;0.75;;
51082;SDS011;37131;42.694;23.350;2023-08-06T07:45:34;1.33;;;0.75;;
51082;SDS011;37131;42.694;23.350;2023-08-06T07:48:03;1.48;;;0.95;;
51082;SDS011;37131;42.694;23.350;2023-08-06T07:50:29;2.35;;;0.80;;
51082;SDS011;37131;42.694;23.350;2023-08-06T07:52:54;1.30;;;0.75;;
51082;SDS011;37131;42.694;23.350;2023-08-06T07:55:20;3.30;;;0.80;;
51082;SDS011;37131;42.694;23.350;2023-08-06T07:57:45;2.80;;;0.60;;
51082;SDS011;37131;42.694;23.350;2023-08-06T08:00:11;1.38;;;0.80;;
51082;SDS011;37131;42.694;23.350;2023-08-06T08:02:36;1.42;;;0.60;;
51082;SDS011;37131;42.694;23.350;2023-08-06T08:05:01;2.17;;;0.80;;
51082;SDS011;37131;42.694;23.350;2023-08-06T08:07:27;1.13;;;0.70;;
51082;SDS011;37131;42.694;23.350;2023-08-06T08:09:55;1.10;;;0.70;;
51082;SDS011;37131;42.694;23.350;2023-08-06T08:12:21;1.10;;;0.63;;
51082;SDS011;37131;42.694;23.350;2023-08-06T08:14:46;1.90;;;0.68;;
51082;SDS011;37131;42.694;23.350;2023-08-06T08:17:11;1.52;;;0.80;;
51082;SDS011;37131;42.694;23.350;2023-08-06T08:19:37;1.60;;;0.70;;
51082;SDS011;37131;42.694;23.350;2023-08-06T08:22:02;0.93;;;0.70;;
51082;SDS011;37131;42.694;23.350;2023-08-06T08:24:28;1.00;;;0.70;;
51082;SDS011;37131;42.694;23.350;2023-08-06T08:26:55;1.77;;;0.80;;
51082;SDS011;37131;42.694;23.350;2023-08-06T08:29:21;1.63;;;0.85;;
51082;SDS011;37131;42.694;23.350;2023-08-06T08:31:47;2.20;;;0.80;;
51082;SDS011;37131;42.694;23.350;2023-08-06T08:34:16;1.67;;;0.80;;
51082;SDS011;37131;42.694;23.350;2023-08-06T08:36:42;1.20;;;0.82;;
51082;SDS011;37131;42.694;23.350;2023-08-06T08:39:08;0.88;;;0.63;;
51082;SDS011;37131;42.694;23.350;2023-08-06T08:41:34;1.58;;;0.88;;
51082;SDS011;37131;42.694;23.350;2023-08-06T08:44:01;1.65;;;0.90;;
51082;SDS011;37131;42.694;23.350;2023-08-06T08:46:27;1.33;;;0.80;;
51082;SDS011;37131;42.694;23.350;2023-08-06T08:48:56;2.95;;;0.88;;
51082;SDS011;37131;42.694;23.350;2023-08-06T08:51:23;1.70;;;0.75;;
51082;SDS011;37131;42.694;23.350;2023-08-06T08:53:50;1.90;;;0.90;;
51082;SDS011;37131;42.694;23.350;2023-08-06T08:56:21;2.53;;;0.80;;
51082;SDS011;37131;42.694;23.350;2023-08-06T08:58:46;1.80;;;0.90;;
51082;SDS011;37131;42.694;23.350;2023-08-06T09:01:13;1.70;;;0.90;;
51082;SDS011;37131;42.694;23.350;2023-08-06T09:03:40;2.55;;;0.80;;
51082;SDS011;37131;42.694;23.350;2023-08-06T09:06:06;0.95;;;0.65;;
51082;SDS011;37131;42.694;23.350;2023-08-06T09:08:36;1.45;;;0.82;;
51082;SDS011;37131;42.694;23.350;2023-08-06T09:11:04;2.35;;;0.90;;
51082;SDS011;37131;42.694;23.350;2023-08-06T09:13:35;1.20;;;0.70;;
51082;SDS011;37131;42.694;23.350;2023-08-06T09:16:01;1.40;;;0.80;;
51082;SDS011;37131;42.694;23.350;2023-08-06T09:18:27;2.47;;;0.98;;
51082;SDS011;37131;42.694;23.350;2023-08-06T09:20:54;1.52;;;0.90;;
51082;SDS011;37131;42.694;23.350;2023-08-06T09:23:21;2.78;;;1.00;;
51082;SDS011;37131;42.694;23.350;2023-08-06T09:25:54;1.85;;;0.90;;
51082;SDS011;37131;42.694;23.350;2023-08-06T09:28:20;0.98;;;0.63;;
51082;SDS011;37131;42.694;23.350;2023-08-06T09:30:46;2.45;;;0.70;;
51082;SDS011;37131;42.694;23.350;2023-08-06T09:33:14;1.75;;;0.85;;
51082;SDS011;37131;42.694;23.350;2023-08-06T09:35:43;1.00;;;0.70;;
51082;SDS011;37131;42.694;23.350;2023-08-06T09:38:09;1.52;;;0.60;;
51082;SDS011;37131;42.694;23.350;2023-08-06T09:40:35;1.45;;;0.80;;
51082;SDS011;37131;42.694;23.350;2023-08-06T09:43:02;1.95;;;0.80;;
51082;SDS011;37131;42.694;23.350;2023-08-06T09:45:34;1.63;;;0.80;;
51082;SDS011;37131;42.694;23.350;2023-08-06T09:48:04;0.82;;;0.63;;
51082;SDS011;37131;42.694;23.350;2023-08-06T09:50:31;2.20;;;0.80;;
51082;SDS011;37131;42.694;23.350;2023-08-06T09:53:01;2.10;;;1.00;;
51082;SDS011;37131;42.694;23.350;2023-08-06T09:55:28;2.10;;;0.73;;
51082;SDS011;37131;42.694;23.350;2023-08-06T09:57:53;1.40;;;0.60;;
51082;SDS011;37131;42.694;23.350;2023-08-06T10:00:19;0.73;;;0.50;;
51082;SDS011;37131;42.694;23.350;2023-08-06T10:02:45;2.58;;;0.70;;
51082;SDS011;37131;42.694;23.350;2023-08-06T10:05:11;1.17;;;0.70;;
51082;SDS011;37131;42.694;23.350;2023-08-06T10:07:37;1.08;;;0.68;;
51082;SDS011;37131;42.694;23.350;2023-08-06T10:10:06;1.20;;;0.70;;
51082;SDS011;37131;42.694;23.350;2023-08-06T10:12:42;1.35;;;0.60;;
51082;SDS011;37131;42.694;23.350;2023-08-06T10:15:12;1.50;;;0.60;;
51082;SDS011;37131;42.694;23.350;2023-08-06T10:17:40;2.15;;;0.80;;
51082;SDS011;37131;42.694;23.350;2023-08-06T10:20:08;1.45;;;0.60;;
51082;SDS011;37131;42.694;23.350;2023-08-06T10:22:34;0.85;;;0.47;;
51082;SDS011;37131;42.694;23.350;2023-08-06T10:25:00;0.95;;;0.65;;
51082;SDS011;37131;42.694;23.350;2023-08-06T10:27:30;2.03;;;0.80;;
51082;SDS011;37131;42.694;23.350;2023-08-06T10:29:56;1.35;;;0.70;;
51082;SDS011;37131;42.694;23.350;2023-08-06T10:32:48;1.02;;;0.47;;
51082;SDS011;37131;42.694;23.350;2023-08-06T10:38:07;1.33;;;0.57;;
51082;SDS011;37131;42.694;23.350;2023-08-06T10:40:39;1.08;;;0.55;;
51082;SDS011;37131;42.694;23.350;2023-08-06T10:43:06;1.25;;;0.50;;
51082;SDS011;37131;42.694;23.350;2023-08-06T10:45:36;1.25;;;0.60;;
51082;SDS011;37131;42.694;23.350;2023-08-06T10:48:02;1.58;;;0.70;;
51082;SDS011;37131;42.694;23.350;2023-08-06T10:50:29;1.23;;;0.60;;
51082;SDS011;37131;42.694;23.350;2023-08-06T10:52:56;3.03;;;0.82;;
51082;SDS011;37131;42.694;23.350;2023-08-06T10:55:23;1.58;;;0.80;;
51082;SDS011;37131;42.694;23.350;2023-08-06T10:57:50;1.08;;;0.77;;
51082;SDS011;37131;42.694;23.350;2023-08-06T11:00:16;3.47;;;0.70;;
51082;SDS011;37131;42.694;23.350;2023-08-06T11:02:41;1.58;;;0.80;;
51082;SDS011;37131;42.694;23.350;2023-08-06T11:05:07;1.60;;;0.77;;
51082;SDS011;37131;42.694;23.350;2023-08-06T11:07:36;3.40;;;0.80;;
51082;SDS011;37131;42.694;23.350;2023-08-06T11:10:06;3.00;;;0.90;;
51082;SDS011;37131;42.694;23.350;2023-08-06T11:12:32;1.83;;;1.00;;
51082;SDS011;37131;42.694;23.350;2023-08-06T11:14:59;1.95;;;0.90;;
51082;SDS011;37131;42.694;23.350;2023-08-06T11:17:25;1.90;;;0.85;;
51082;SDS011;37131;42.694;23.350;2023-08-06T11:19:53;1.13;;;0.75;;
51082;SDS011;37131;42.694;23.350;2023-08-06T11:22:20;1.20;;;0.82;;
51082;SDS011;37131;42.694;23.350;2023-08-06T11:24:48;2.20;;;1.23;;
51082;SDS011;37131;42.694;23.350;2023-08-06T11:27:14;3.40;;;0.80;;
51082;SDS011;37131;42.694;23.350;2023-08-06T11:29:41;1.67;;;1.05;;
51082;SDS011;37131;42.694;23.350;2023-08-06T11:32:08;2.75;;;0.93;;
51082;SDS011;37131;42.694;23.350;2023-08-06T11:34:34;2.85;;;1.30;;
51082;SDS011;37131;42.694;23.350;2023-08-06T11:37:00;2.95;;;1.38;;
51082;SDS011;37131;42.694;23.350;2023-08-06T11:39:25;3.88;;;1.30;;
51082;SDS011;37131;42.694;23.350;2023-08-06T11:41:51;1.27;;;0.90;;
51082;SDS011;37131;42.694;23.350;2023-08-06T11:44:18;1.98;;;1.00;;
51082;SDS011;37131;42.694;23.350;2023-08-06T11:46:54;2.88;;;1.00;;
51082;SDS011;37131;42.694;23.350;2023-08-06T11:52:24;1.80;;;1.00;;
51082;SDS011;37131;42.694;23.350;2023-08-06T11:55:03;2.72;;;1.08;;
51082;SDS011;37131;42.694;23.350;2023-08-06T11:57:32;2.35;;;1.20;;
51082;SDS011;37131;42.694;23.350;2023-08-06T12:00:04;1.88;;;1.00;;
51082;SDS011;37131;42.694;23.350;2023-08-06T12:02:31;1.65;;;1.05;;
51082;SDS011;37131;42.694;23.350;2023-08-06T12:07:38;4.00;;;1.20;;
51082;SDS011;37131;42.694;23.350;2023-08-06T12:10:05;1.38;;;1.13;;
51082;SDS011;37131;42.694;23.350;2023-08-06T12:12:31;2.22;;;1.25;;
51082;SDS011;37131;42.694;23.350;2023-08-06T12:14:56;3.50;;;1.27;;
51082;SDS011;37131;42.694;23.350;2023-08-06T12:17:25;3.63;;;1.33;;
51082;SDS011;37131;42.694;23.350;2023-08-06T12:19:51;1.80;;;1.20;;
51082;SDS011;37131;42.694;23.350;2023-08-06T12:22:16;2.35;;;1.30;;
51082;SDS011;37131;42.694;23.350;2023-08-06T12:24:42;2.13;;;1.35;;
51082;SDS011;37131;42.694;23.350;2023-08-06T12:27:09;2.45;;;1.67;;
51082;SDS011;37131;42.694;23.350;2023-08-06T12:29:35;2.40;;;1.30;;
51082;SDS011;37131;42.694;23.350;2023-08-06T12:32:01;2.08;;;1.30;;
51082;SDS011;37131;42.694;23.350;2023-08-06T12:34:27;3.35;;;1.25;;
51082;SDS011;37131;42.694;23.350;2023-08-06T12:36:52;1.73;;;1.25;;
51082;SDS011;37131;42.694;23.350;2023-08-06T12:39:18;2.67;;;1.40;;
51082;SDS011;37131;42.694;23.350;2023-08-06T12:41:43;3.15;;;1.48;;
51082;SDS011;37131;42.694;23.350;2023-08-06T12:44:10;2.55;;;1.40;;
51082;SDS011;37131;42.694;23.350;2023-08-06T12:46:36;2.05;;;1.60;;
51082;SDS011;37131;42.694;23.350;2023-08-06T12:49:02;2.22;;;1.30;;
51082;SDS011;37131;42.694;23.350;2023-08-06T12:51:28;2.22;;;1.50;;
51082;SDS011;37131;42.694;23.350;2023-08-06T12:53:53;3.53;;;1.67;;
51082;SDS011;37131;42.694;23.350;2023-08-06T12:56:18;3.35;;;1.90;;
51082;SDS011;37131;42.694;23.350;2023-08-06T12:58:44;3.10;;;1.45;;
51082;SDS011;37131;42.694;23.350;2023-08-06T13:01:09;2.08;;;1.10;;
51082;SDS011;37131;42.694;23.350;2023-08-06T13:03:35;2.80;;;1.60;;
51082;SDS011;37131;42.694;23.350;2023-08-06T13:06:00;2.80;;;1.83;;
51082;SDS011;37131;42.694;23.350;2023-08-06T13:08:26;3.33;;;1.45;;
51082;SDS011;37131;42.694;23.350;2023-08-06T13:10:51;2.55;;;1.23;;
51082;SDS011;37131;42.694;23.350;2023-08-06T13:13:17;3.45;;;1.80;;
51082;SDS011;37131;42.694;23.350;2023-08-06T13:15:42;3.50;;;1.42;;
51082;SDS011;37131;42.694;23.350;2023-08-06T13:18:08;2.38;;;1.30;;
51082;SDS011;37131;42.694;23.350;2023-08-06T13:20:33;1.85;;;1.20;;
51082;SDS011;37131;42.694;23.350;2023-08-06T13:22:58;3.28;;;1.85;;
51082;SDS011;37131;42.694;23.350;2023-08-06T13:25:26;4.13;;;1.60;;
51082;SDS011;37131;42.694;23.350;2023-08-06T13:27:53;2.38;;;1.50;;
51082;SDS011;37131;42.694;23.350;2023-08-06T13:30:19;4.43;;;1.75;;
51082;SDS011;37131;42.694;23.350;2023-08-06T13:32:45;2.22;;;1.40;;
51082;SDS011;37131;42.694;23.350;2023-08-06T13:35:10;2.70;;;1.30;;
51082;SDS011;37131;42.694;23.350;2023-08-06T13:37:36;4.47;;;1.40;;
51082;SDS011;37131;42.694;23.350;2023-08-06T13:40:01;3.15;;;1.30;;
51082;SDS011;37131;42.694;23.350;2023-08-06T13:42:27;3.10;;;1.20;;
51082;SDS011;37131;42.694;23.350;2023-08-06T13:44:54;2.67;;;1.30;;
51082;SDS011;37131;42.694;23.350;2023-08-06T13:47:24;3.22;;;1.20;;
51082;SDS011;37131;42.694;23.350;2023-08-06T13:49:50;2.80;;;1.30;;
51082;SDS011;37131;42.694;23.350;2023-08-06T13:52:15;4.28;;;1.10;;
51082;SDS011;37131;42.694;23.350;2023-08-06T13:54:41;3.00;;;1.20;;
51082;SDS011;37131;42.694;23.350;2023-08-06T13:57:06;2.35;;;1.05;;
51082;SDS011;37131;42.694;23.350;2023-08-06T13:59:31;2.15;;;1.20;;
51082;SDS011;37131;42.694;23.350;2023-08-06T14:01:57;2.20;;;1.35;;
51082;SDS011;37131;42.694;23.350;2023-08-06T14:04:24;1.83;;;1.17;;
51082;SDS011;37131;42.694;23.350;2023-08-06T14:06:50;2.35;;;1.50;;
51082;SDS011;37131;42.694;23.350;2023-08-06T14:09:15;2.15;;;1.30;;
51082;SDS011;37131;42.694;23.350;2023-08-06T14:11:43;2.63;;;1.45;;
51082;SDS011;37131;42.694;23.350;2023-08-06T14:14:09;2.38;;;1.23;;
51082;SDS011;37131;42.694;23.350;2023-08-06T14:16:35;4.03;;;1.20;;
51082;SDS011;37131;42.694;23.350;2023-08-06T14:19:01;3.13;;;1.20;;
51082;SDS011;37131;42.694;23.350;2023-08-06T14:21:27;2.15;;;1.33;;
51082;SDS011;37131;42.694;23.350;2023-08-06T14:23:52;1.48;;;1.15;;
51082;SDS011;37131;42.694;23.350;2023-08-06T14:26:17;3.65;;;1.10;;
51082;SDS011;37131;42.694;23.350;2023-08-06T14:28:43;3.90;;;1.50;;
51082;SDS011;37131;42.694;23.350;2023-08-06T14:31:08;2.60;;;1.35;;
51082;SDS011;37131;42.694;23.350;2023-08-06T14:33:34;1.85;;;1.13;;
51082;SDS011;37131;42.694;23.350;2023-08-06T14:35:59;1.92;;;1.10;;
51082;SDS011;37131;42.694;23.350;2023-08-06T14:38:25;2.92;;;1.15;;
51082;SDS011;37131;42.694;23.350;2023-08-06T14:40:50;1.80;;;1.00;;
51082;SDS011;37131;42.694;23.350;2023-08-06T14:43:16;1.85;;;1.20;;
51082;SDS011;37131;42.694;23.350;2023-08-06T14:45:41;1.02;;;0.70;;